createdAt,value
2017-06-11T00:23:12.149Z,0
2017-06-11T00:23:54.740Z,0
2017-06-11T00:24:42.159Z,0
2017-06-11T00:25:22.819Z,0
2017-06-11T00:26:04.394Z,0
2017-06-11T00:26:45.047Z,0
2017-06-11T00:27:25.594Z,0
2017-06-11T00:28:18.111Z,0
2017-06-11T00:29:03.591Z,0
2017-06-11T00:29:46.193Z,0
2017-06-11T00:30:26.741Z,0
2017-06-11T00:31:08.315Z,0
2017-06-11T00:31:59.612Z,0
2017-06-11T00:32:42.211Z,0
2017-06-11T00:33:22.752Z,0
2017-06-11T00:34:03.309Z,0
2017-06-11T00:34:48.676Z,0
2017-06-11T00:35:36.115Z,0
2017-06-11T00:36:16.739Z,0
2017-06-11T00:36:58.317Z,0
2017-06-11T00:37:38.860Z,0
2017-06-11T00:38:36.108Z,0
2017-06-11T01:16:36.358Z,0
2017-06-11T01:17:16.882Z,0
2017-06-11T01:18:04.422Z,0
2017-06-11T01:18:44.945Z,0
2017-06-11T01:19:27.531Z,0
2017-06-11T01:20:14.986Z,0
2017-06-11T01:20:55.573Z,0
2017-06-11T01:21:37.178Z,0
2017-06-11T01:22:17.759Z,0
2017-06-11T01:22:58.334Z,0
2017-06-11T01:23:40.912Z,0
2017-06-11T01:24:23.520Z,0
2017-06-11T01:25:10.006Z,0
2017-06-11T01:26:01.404Z,0
2017-06-11T01:26:41.941Z,0
2017-06-11T01:27:23.560Z,0
2017-06-11T01:28:04.133Z,0
2017-06-11T01:28:44.730Z,0
2017-06-11T01:29:25.261Z,0
2017-06-11T01:30:16.805Z,0
2017-06-11T01:30:57.415Z,0
2017-06-11T01:31:48.963Z,0
2017-06-11T01:32:35.438Z,0
2017-06-11T01:33:17.012Z,0
2017-06-11T01:33:57.566Z,0
2017-06-11T01:34:40.164Z,0
2017-06-11T01:35:21.735Z,0
2017-06-11T01:36:03.311Z,0
2017-06-11T01:36:43.876Z,0
2017-06-11T01:37:26.465Z,0
2017-06-11T01:38:07.070Z,0
2017-06-11T01:38:47.764Z,0
2017-06-11T01:39:28.317Z,0
2017-06-11T01:40:20.440Z,0
2017-06-11T01:41:03.038Z,0
2017-06-11T01:41:44.612Z,0
2017-06-11T01:42:26.185Z,0
2017-06-11T01:43:07.762Z,0
2017-06-11T01:43:48.412Z,0
2017-06-11T01:44:31.012Z,0
2017-06-11T01:45:16.477Z,0
2017-06-11T01:45:59.073Z,0
2017-06-11T01:46:39.604Z,0
2017-06-11T01:47:20.167Z,0
2017-06-11T01:48:13.681Z,0
2017-06-11T01:48:59.915Z,0
2017-06-11T01:49:40.439Z,0
2017-06-11T01:50:25.677Z,0
2017-06-11T01:51:07.211Z,0
2017-06-11T01:51:47.732Z,0
2017-06-11T01:52:29.282Z,0
2017-06-11T01:53:09.801Z,0
2017-06-11T02:24:04.259Z,0
2017-06-11T02:24:44.766Z,0
2017-06-11T02:25:26.334Z,0
2017-06-11T02:26:06.855Z,0
2017-06-11T02:26:53.111Z,0
2017-06-11T02:27:33.645Z,0
2017-06-11T02:28:16.264Z,0
2017-06-11T02:28:56.783Z,0
2017-06-11T02:29:39.378Z,0
2017-06-11T02:30:19.977Z,0
2017-06-11T02:31:00.498Z,0
2017-06-11T02:31:42.054Z,0
2017-06-11T02:32:22.637Z,0
2017-06-11T02:33:03.200Z,0
2017-06-11T02:33:48.662Z,0
2017-06-11T02:34:30.239Z,0
2017-06-11T02:35:11.803Z,0
2017-06-11T02:35:59.103Z,0
2017-06-11T03:01:30.584Z,0
2017-06-11T03:02:11.165Z,0
2017-06-11T03:02:53.762Z,0
2017-06-11T03:03:35.328Z,0
2017-06-11T03:04:15.894Z,0
2017-06-11T03:04:58.488Z,4
2017-06-11T03:05:40.063Z,4
2017-06-11T03:06:22.667Z,4
2017-06-11T03:07:04.241Z,4
2017-06-11T03:07:45.514Z,4
2017-06-11T03:08:28.098Z,4
2017-06-11T03:09:10.707Z,4
2017-06-11T03:09:53.308Z,4
2017-06-11T03:10:35.901Z,4
2017-06-11T03:11:16.446Z,4
2017-06-11T03:12:03.864Z,4
2017-06-11T03:12:45.490Z,4
2017-06-11T03:13:26.082Z,4
2017-06-11T03:14:06.634Z,4
2017-06-11T03:14:48.260Z,4
2017-06-11T03:15:29.868Z,8
2017-06-11T03:16:10.438Z,8
2017-06-11T03:16:51.026Z,8
2017-06-11T03:17:32.663Z,8
2017-06-11T03:18:13.220Z,4
2017-06-11T03:18:53.765Z,4
2017-06-11T03:19:34.321Z,4
2017-06-11T03:20:16.922Z,8
2017-06-11T03:20:59.513Z,8
2017-06-11T03:21:45.909Z,8
2017-06-11T03:22:37.427Z,8
2017-06-11T03:23:18.984Z,8
2017-06-11T03:23:59.532Z,12
2017-06-11T03:24:40.085Z,8
2017-06-11T03:25:20.648Z,8
2017-06-11T03:26:01.199Z,8
2017-06-11T03:26:42.759Z,12
2017-06-11T03:27:23.434Z,12
2017-06-11T03:28:04.995Z,12
2017-06-11T03:28:45.946Z,12
2017-06-11T03:29:32.457Z,8
2017-06-11T03:30:12.989Z,12
2017-06-11T03:30:54.566Z,12
2017-06-11T03:31:36.141Z,12
2017-06-11T03:32:16.682Z,12
2017-06-11T03:33:04.173Z,12
2017-06-11T03:33:44.700Z,12
2017-06-11T03:34:26.278Z,16
2017-06-11T03:35:07.909Z,16
2017-06-11T03:35:48.449Z,16
2017-06-11T03:36:29.049Z,12
2017-06-11T03:37:15.168Z,12
2017-06-11T03:37:56.736Z,12
2017-06-11T03:38:43.106Z,16
2017-06-11T03:39:29.611Z,16
2017-06-11T03:40:10.168Z,16
2017-06-11T03:40:56.644Z,16
2017-06-11T03:41:39.243Z,16
2017-06-11T03:42:21.827Z,16
2017-06-11T03:43:12.871Z,16
2017-06-11T03:43:54.448Z,16
2017-06-11T03:44:45.962Z,16
2017-06-11T03:45:26.792Z,20
2017-06-11T03:46:07.320Z,20
2017-06-11T03:46:47.930Z,16
2017-06-11T03:47:28.473Z,16
2017-06-11T03:48:15.616Z,20
2017-06-11T03:48:56.135Z,20
2017-06-11T03:49:38.790Z,20
2017-06-11T03:50:19.370Z,24
2017-06-11T03:50:59.918Z,24
2017-06-11T03:51:40.534Z,24
2017-06-11T03:52:26.982Z,24
2017-06-11T03:53:07.501Z,28
2017-06-11T03:53:50.121Z,24
2017-06-11T03:54:32.674Z,24
2017-06-11T03:55:13.299Z,24
2017-06-11T03:55:53.823Z,24
2017-06-11T03:56:45.231Z,24
2017-06-11T03:57:26.809Z,20
2017-06-11T03:58:07.337Z,24
2017-06-11T03:58:47.956Z,20
2017-06-11T03:59:30.509Z,20
2017-06-11T04:00:11.030Z,20
2017-06-11T04:00:52.678Z,20
2017-06-11T04:01:37.988Z,24
2017-06-11T04:02:19.567Z,24
2017-06-11T04:03:02.165Z,24
2017-06-11T04:03:42.674Z,24
2017-06-11T04:04:25.260Z,24
2017-06-11T04:05:12.413Z,28
2017-06-11T04:05:55.056Z,24
2017-06-11T04:06:40.485Z,28
2017-06-11T04:07:22.058Z,28
2017-06-11T04:08:07.421Z,32
2017-06-11T04:08:53.004Z,32
2017-06-11T04:09:38.454Z,32
2017-06-11T04:10:20.078Z,28
2017-06-11T04:11:02.678Z,32
2017-06-11T04:11:49.984Z,32
2017-06-11T04:12:31.559Z,32
2017-06-11T04:13:12.112Z,32
2017-06-11T04:13:53.695Z,32
2017-06-11T04:14:34.340Z,36
2017-06-11T04:15:15.937Z,36
2017-06-11T04:15:56.571Z,36
2017-06-11T04:16:47.971Z,40
2017-06-11T04:17:28.483Z,40
2017-06-11T04:18:09.099Z,40
2017-06-11T04:18:52.758Z,44
2017-06-11T04:19:34.369Z,48
2017-06-11T04:20:14.895Z,44
2017-06-11T04:21:11.243Z,52
2017-06-11T04:21:51.856Z,52
2017-06-11T04:22:32.405Z,56
2017-06-11T04:23:13.045Z,52
2017-06-11T04:23:53.617Z,56
2017-06-11T04:24:34.147Z,52
2017-06-11T04:25:15.729Z,48
2017-06-11T04:25:57.297Z,52
2017-06-11T04:26:39.157Z,52
2017-06-11T04:27:19.885Z,56
2017-06-11T04:28:00.405Z,56
2017-06-11T04:28:41.141Z,56
2017-06-11T04:29:21.685Z,56
2017-06-11T04:30:06.902Z,60
2017-06-11T04:30:47.429Z,60
2017-06-11T04:31:32.906Z,64
2017-06-11T04:32:13.514Z,60
2017-06-11T04:33:04.970Z,60
2017-06-11T04:33:45.487Z,60
2017-06-11T04:34:26.085Z,60
2017-06-11T04:35:07.707Z,60
2017-06-11T04:35:48.299Z,64
2017-06-11T04:36:28.868Z,64
2017-06-11T04:37:10.630Z,64
2017-06-11T04:37:53.236Z,64
2017-06-11T04:38:33.758Z,64
2017-06-11T04:39:14.597Z,64
2017-06-11T04:47:42.750Z,60
2017-06-11T04:48:24.322Z,56
2017-06-11T04:49:04.858Z,56
2017-06-11T04:49:46.471Z,56
2017-06-11T04:50:28.089Z,60
2017-06-11T04:51:14.314Z,64
2017-06-11T04:51:54.833Z,64
2017-06-11T04:52:35.364Z,64
2017-06-11T04:53:15.996Z,68
2017-06-11T04:53:56.478Z,72
2017-06-11T04:54:37.203Z,72
2017-06-11T04:55:19.848Z,68
2017-06-11T04:56:00.375Z,64
2017-06-11T04:56:41.015Z,64
2017-06-11T04:57:21.627Z,68
2017-06-11T04:58:03.286Z,68
2017-06-11T04:58:43.864Z,72
2017-06-11T04:59:25.424Z,76
2017-06-11T05:00:05.935Z,72
2017-06-11T05:00:47.583Z,76
2017-06-11T05:01:30.179Z,84
2017-06-11T05:02:10.779Z,84
2017-06-11T05:02:51.385Z,76
2017-06-11T05:03:32.944Z,72
2017-06-11T05:04:13.488Z,72
2017-06-11T05:04:55.103Z,68
2017-06-11T05:05:35.735Z,68
2017-06-11T05:06:17.287Z,68
2017-06-11T05:06:59.886Z,68
2017-06-11T05:07:40.515Z,68
2017-06-11T05:08:22.113Z,68
2017-06-11T05:09:02.642Z,68
2017-06-11T05:09:43.238Z,64
2017-06-11T05:10:24.836Z,68
2017-06-11T05:11:11.343Z,76
2017-06-11T05:11:51.876Z,80
2017-06-11T05:12:33.610Z,80
2017-06-11T05:13:18.759Z,80
2017-06-11T05:14:05.358Z,80
2017-06-11T05:14:46.324Z,80
2017-06-11T05:15:27.099Z,88
2017-06-11T05:16:07.728Z,88
2017-06-11T05:16:53.294Z,88
2017-06-11T05:17:39.786Z,88
2017-06-11T05:27:24.599Z,96
2017-06-11T05:28:05.143Z,100
2017-06-11T05:28:45.800Z,104
2017-06-11T05:29:26.453Z,104
2017-06-11T05:30:08.023Z,104
2017-06-11T05:30:48.547Z,100
2017-06-11T05:31:29.134Z,104
2017-06-11T05:32:11.726Z,104
2017-06-11T05:32:59.255Z,112
2017-06-11T05:33:41.840Z,112
2017-06-11T05:34:22.387Z,116
2017-06-11T05:35:05.036Z,112
2017-06-11T05:35:45.585Z,108
2017-06-11T05:36:26.156Z,108
2017-06-11T05:37:06.690Z,108
2017-06-11T05:37:48.291Z,112
2017-06-11T05:38:30.860Z,112
2017-06-11T05:39:11.471Z,120
2017-06-11T05:39:56.931Z,120
2017-06-11T05:40:37.479Z,116
2017-06-11T05:41:18.087Z,116
2017-06-11T05:41:58.682Z,116
2017-06-11T05:42:39.266Z,108
2017-06-11T05:43:19.882Z,104
2017-06-11T05:44:00.435Z,100
2017-06-11T05:44:41.092Z,96
2017-06-11T05:45:26.349Z,92
2017-06-11T05:46:06.905Z,88
2017-06-11T05:46:58.409Z,84
2017-06-11T05:47:38.959Z,84
2017-06-11T05:48:19.476Z,80
2017-06-11T05:49:00.164Z,80
2017-06-11T05:49:40.719Z,80
2017-06-11T05:50:26.895Z,80
2017-06-11T05:51:09.496Z,84
2017-06-11T05:51:51.069Z,84
2017-06-11T05:52:31.591Z,84
2017-06-11T05:53:12.371Z,88
2017-06-11T05:54:07.620Z,84
2017-06-11T05:54:53.854Z,80
2017-06-11T05:55:34.387Z,80
2017-06-11T05:56:14.969Z,84
2017-06-11T05:57:01.097Z,88
2017-06-11T05:57:41.682Z,84
2017-06-11T05:58:22.247Z,84
2017-06-11T05:59:19.698Z,80
2017-06-11T06:00:01.312Z,76
2017-06-11T06:00:41.908Z,72
2017-06-11T06:01:22.438Z,68
2017-06-11T06:02:04.086Z,68
2017-06-11T06:02:44.643Z,72
2017-06-11T06:03:26.259Z,76
2017-06-11T06:04:06.809Z,72
2017-06-11T06:04:47.381Z,76
2017-06-11T06:05:27.977Z,72
2017-06-11T06:06:09.591Z,76
2017-06-11T06:06:50.114Z,80
2017-06-11T06:07:32.757Z,84
2017-06-11T06:08:14.366Z,84
2017-06-11T06:08:54.973Z,80
2017-06-11T06:09:36.570Z,76
2017-06-11T06:10:18.120Z,76
2017-06-11T06:10:59.709Z,76
2017-06-11T06:11:42.297Z,76
2017-06-11T06:12:22.833Z,80
2017-06-11T06:13:03.453Z,76
2017-06-11T06:13:48.872Z,72
2017-06-11T06:14:29.384Z,72
2017-06-11T06:15:11.045Z,76
2017-06-11T06:15:52.666Z,84
2017-06-11T06:16:33.190Z,92
2017-06-11T06:17:13.739Z,100
2017-06-11T06:17:59.126Z,104
2017-06-11T06:18:39.742Z,104
2017-06-11T06:19:20.397Z,104
2017-06-11T06:20:07.599Z,108
2017-06-11T06:20:49.168Z,104
2017-06-11T06:21:40.574Z,100
2017-06-11T06:22:22.147Z,104
2017-06-11T06:23:07.355Z,104
2017-06-11T06:23:53.982Z,108
2017-06-11T06:24:34.631Z,108
2017-06-11T06:25:30.926Z,112
2017-06-11T06:26:16.392Z,120
2017-06-11T06:26:56.934Z,128
2017-06-11T06:27:37.459Z,136
2017-06-11T06:28:19.084Z,148
2017-06-11T06:28:59.684Z,168
2017-06-11T06:29:41.286Z,180
2017-06-11T06:30:21.816Z,192
2017-06-11T06:31:03.466Z,200
2017-06-11T06:31:44.038Z,208
2017-06-11T06:32:24.644Z,216
2017-06-11T06:33:05.163Z,216
2017-06-11T06:33:45.755Z,212
2017-06-11T06:34:32.079Z,196
2017-06-11T06:35:23.417Z,200
2017-06-11T06:36:03.934Z,216
2017-06-11T06:36:45.538Z,236
2017-06-11T06:37:27.174Z,248
2017-06-11T06:38:08.731Z,240
2017-06-11T06:38:51.432Z,228
2017-06-11T06:39:33.039Z,216
2017-06-11T06:40:14.658Z,212
2017-06-11T06:40:55.265Z,228
2017-06-11T06:41:36.837Z,264
2017-06-11T06:42:17.390Z,292
2017-06-11T06:42:59.071Z,292
2017-06-11T06:43:39.596Z,284
2017-06-11T06:44:20.241Z,280
2017-06-11T06:45:05.639Z,284
2017-06-11T06:45:47.242Z,288
2017-06-11T06:46:27.779Z,284
2017-06-11T06:47:08.351Z,264
2017-06-11T06:47:53.906Z,252
2017-06-11T06:48:34.425Z,236
2017-06-11T06:49:15.983Z,212
2017-06-11T06:49:56.588Z,204
2017-06-11T06:50:37.127Z,204
2017-06-11T06:51:22.667Z,220
2017-06-11T06:52:05.200Z,228
2017-06-11T06:52:45.783Z,228
2017-06-11T06:53:27.324Z,244
2017-06-11T06:54:09.903Z,260
2017-06-11T06:54:57.435Z,272
2017-06-11T06:55:37.968Z,280
2017-06-11T06:56:19.566Z,280
2017-06-11T06:57:02.220Z,264
2017-06-11T06:57:42.919Z,240
2017-06-11T06:58:23.470Z,220
2017-06-11T06:59:05.191Z,200
2017-06-11T06:59:46.206Z,188
2017-06-11T07:00:28.844Z,184
2017-06-11T07:01:10.483Z,192
2017-06-11T07:01:51.064Z,224
2017-06-11T07:02:31.620Z,236
2017-06-11T07:03:12.347Z,244
2017-06-11T07:03:52.956Z,240
2017-06-11T07:04:38.466Z,236
2017-06-11T07:05:18.964Z,224
2017-06-11T07:06:00.603Z,216
2017-06-11T07:06:42.230Z,212
2017-06-11T07:07:22.808Z,228
2017-06-11T07:08:03.353Z,248
2017-06-11T07:08:45.967Z,272
2017-06-11T07:09:26.622Z,272
2017-06-11T07:10:07.272Z,272
2017-06-11T07:10:48.839Z,264
2017-06-11T07:11:30.456Z,252
2017-06-11T07:12:11.004Z,244
2017-06-11T07:12:51.635Z,248
2017-06-11T07:13:32.301Z,244
2017-06-11T07:14:12.921Z,240
2017-06-11T07:14:53.551Z,244
2017-06-11T07:15:34.197Z,252
2017-06-11T07:16:14.722Z,252
2017-06-11T07:16:56.331Z,252
2017-06-11T07:17:36.866Z,280
2017-06-11T07:18:17.450Z,300
2017-06-11T07:18:58.048Z,300
2017-06-11T07:19:38.642Z,312
2017-06-11T07:20:19.204Z,316
2017-06-11T07:20:59.757Z,304
2017-06-11T07:21:40.352Z,288
2017-06-11T07:22:20.932Z,268
2017-06-11T07:23:01.507Z,244
2017-06-11T07:23:42.165Z,236
2017-06-11T07:24:23.768Z,224
2017-06-11T07:25:04.408Z,216
2017-06-11T07:25:44.928Z,236
2017-06-11T07:26:27.540Z,272
2017-06-11T07:27:08.141Z,268
2017-06-11T07:27:48.767Z,264
2017-06-11T07:28:31.319Z,264
2017-06-11T07:29:11.976Z,268
2017-06-11T07:29:52.518Z,272
2017-06-11T07:30:33.075Z,272
2017-06-11T07:31:13.625Z,268
2017-06-11T07:31:59.912Z,268
2017-06-11T07:32:40.442Z,284
2017-06-11T07:33:21.029Z,288
2017-06-11T07:34:01.657Z,296
2017-06-11T07:34:42.273Z,292
2017-06-11T07:35:22.816Z,268
2017-06-11T07:36:03.424Z,248
2017-06-11T07:36:46.106Z,244
2017-06-11T07:37:26.667Z,240
2017-06-11T07:38:08.293Z,240
2017-06-11T07:38:48.898Z,240
2017-06-11T07:39:30.486Z,244
2017-06-11T07:40:11.187Z,256
2017-06-11T07:40:51.781Z,252
2017-06-11T07:41:32.841Z,248
2017-06-11T07:42:13.294Z,244
2017-06-11T07:42:53.842Z,236
2017-06-11T07:43:36.437Z,232
2017-06-11T07:44:18.021Z,236
2017-06-11T07:45:00.613Z,260
2017-06-11T07:45:42.190Z,264
2017-06-11T07:46:23.749Z,248
2017-06-11T07:47:06.387Z,220
2017-06-11T07:47:47.013Z,208
2017-06-11T07:48:28.583Z,204
2017-06-11T07:49:09.145Z,192
2017-06-11T07:49:49.794Z,188
2017-06-11T07:50:30.348Z,184
2017-06-11T07:51:11.017Z,192
2017-06-11T07:51:51.657Z,212
2017-06-11T07:52:32.182Z,212
2017-06-11T07:53:12.762Z,192
2017-06-11T07:53:53.368Z,176
2017-06-11T07:54:33.960Z,184
2017-06-11T07:55:14.496Z,200
2017-06-11T07:55:55.065Z,216
2017-06-11T07:56:35.667Z,224
2017-06-11T07:57:17.284Z,224
2017-06-11T07:57:57.819Z,216
2017-06-11T07:58:38.394Z,208
2017-06-11T07:59:20.001Z,192
2017-06-11T08:00:00.611Z,184
2017-06-11T08:00:41.132Z,176
2017-06-11T08:01:21.674Z,172
2017-06-11T08:02:02.213Z,176
2017-06-11T08:02:42.819Z,180
2017-06-11T08:03:23.359Z,192
2017-06-11T08:04:04.945Z,212
2017-06-11T08:04:45.491Z,224
2017-06-11T08:05:26.044Z,228
2017-06-11T08:06:07.757Z,224
2017-06-11T08:06:48.368Z,224
2017-06-11T08:07:28.928Z,220
2017-06-11T08:08:09.978Z,224
2017-06-11T08:08:50.615Z,236
2017-06-11T08:09:32.209Z,252
2017-06-11T08:10:12.733Z,280
2017-06-11T08:10:53.376Z,308
2017-06-11T08:11:35.030Z,324
2017-06-11T08:12:15.541Z,336
2017-06-11T08:12:56.153Z,332
2017-06-11T08:13:36.741Z,324
2017-06-11T08:14:17.267Z,344
2017-06-11T08:14:57.850Z,368
2017-06-11T08:15:38.442Z,380
2017-06-11T08:16:19.051Z,396
2017-06-11T08:16:59.575Z,408
2017-06-11T08:17:41.210Z,416
2017-06-11T08:18:21.863Z,436
2017-06-11T08:19:03.414Z,452
2017-06-11T08:19:43.984Z,460
2017-06-11T08:20:24.736Z,456
2017-06-11T08:21:05.267Z,460
2017-06-11T08:21:45.843Z,456
2017-06-11T08:22:26.482Z,456
2017-06-11T08:23:07.118Z,472
2017-06-11T08:23:47.663Z,464
2017-06-11T08:24:28.218Z,456
2017-06-11T08:25:09.784Z,456
2017-06-11T08:25:50.342Z,436
2017-06-11T08:26:31.011Z,436
2017-06-11T08:27:12.571Z,424
2017-06-11T08:27:53.121Z,412
2017-06-11T08:28:33.684Z,404
2017-06-11T08:29:14.327Z,388
2017-06-11T08:29:54.971Z,404
2017-06-11T08:30:35.627Z,396
2017-06-11T08:31:16.279Z,368
2017-06-11T08:31:56.840Z,368
2017-06-11T08:32:37.482Z,380
2017-06-11T08:33:19.057Z,412
2017-06-11T08:33:59.611Z,452
2017-06-11T08:34:42.206Z,480
2017-06-11T08:35:22.764Z,512
2017-06-11T08:36:03.443Z,528
2017-06-11T08:36:44.061Z,508
2017-06-11T08:37:24.608Z,504
2017-06-11T08:38:05.227Z,428
2017-06-11T08:38:45.822Z,404
2017-06-11T08:39:26.383Z,392
2017-06-11T08:40:06.975Z,348
2017-06-11T08:40:47.569Z,340
2017-06-11T08:41:28.101Z,304
2017-06-11T08:42:08.772Z,268
2017-06-11T08:42:49.323Z,320
2017-06-11T08:43:29.870Z,300
2017-06-11T08:44:12.514Z,368
2017-06-11T08:44:53.110Z,420
2017-06-11T08:45:33.694Z,460
2017-06-11T08:46:14.272Z,396
2017-06-11T08:46:55.835Z,424
2017-06-11T08:47:36.411Z,448
2017-06-11T08:48:16.959Z,512
2017-06-11T08:48:57.516Z,564
2017-06-11T08:49:38.059Z,572
2017-06-11T08:50:18.650Z,608
2017-06-11T08:50:59.260Z,636
2017-06-11T08:51:41.857Z,644
2017-06-11T08:52:22.409Z,744
2017-06-11T08:53:03.011Z,664
2017-06-11T08:53:43.549Z,656
2017-06-11T08:54:26.162Z,752
2017-06-11T08:55:06.707Z,688
2017-06-11T08:55:47.311Z,692
2017-06-11T08:56:27.836Z,768
2017-06-11T08:57:08.429Z,696
2017-06-11T08:57:49.011Z,680
2017-06-11T08:58:29.574Z,708
2017-06-11T08:59:10.110Z,740
2017-06-11T08:59:51.309Z,752
2017-06-11T09:00:31.932Z,748
2017-06-11T09:01:12.526Z,732
2017-06-11T09:01:54.051Z,760
2017-06-11T09:02:34.613Z,812
2017-06-11T09:03:15.204Z,740
2017-06-11T09:03:55.717Z,764
2017-06-11T09:04:36.328Z,700
2017-06-11T09:05:16.913Z,728
2017-06-11T09:05:57.517Z,836
2017-06-11T09:06:38.055Z,772
2017-06-11T09:07:19.291Z,724
2017-06-11T09:07:59.862Z,716
2017-06-11T09:08:40.437Z,728
2017-06-11T09:09:20.984Z,772
2017-06-11T09:10:01.569Z,732
2017-06-11T09:10:42.161Z,788
2017-06-11T09:11:22.742Z,720
2017-06-11T09:12:03.280Z,700
2017-06-11T09:12:43.875Z,712
2017-06-11T09:13:24.576Z,760
2017-06-11T09:14:05.999Z,748
2017-06-11T09:14:46.570Z,748
2017-06-11T09:15:27.140Z,744
2017-06-11T09:16:07.675Z,752
2017-06-11T09:16:48.343Z,808
2017-06-11T09:17:28.999Z,812
2017-06-11T09:18:09.654Z,800
2017-06-11T09:18:50.171Z,884
2017-06-11T09:19:30.724Z,884
2017-06-11T09:20:11.300Z,848
2017-06-11T09:20:51.822Z,852
2017-06-11T09:21:32.401Z,904
2017-06-11T09:22:13.061Z,908
2017-06-11T09:22:53.581Z,904
2017-06-11T09:23:34.312Z,892
2017-06-11T09:24:14.828Z,860
2017-06-11T09:24:55.516Z,888
2017-06-11T09:25:36.143Z,888
2017-06-11T09:26:16.674Z,892
2017-06-11T09:26:57.323Z,840
2017-06-11T09:27:37.897Z,852
2017-06-11T09:28:18.419Z,848
2017-06-11T09:28:59.019Z,860
2017-06-11T09:29:39.592Z,832
2017-06-11T09:30:20.897Z,836
2017-06-11T09:31:01.440Z,820
2017-06-11T09:31:42.037Z,864
2017-06-11T09:32:22.646Z,852
2017-06-11T09:33:03.229Z,828
2017-06-11T09:33:43.767Z,800
2017-06-11T09:34:24.341Z,792
2017-06-11T09:35:04.892Z,816
2017-06-11T09:35:45.425Z,856
2017-06-11T09:36:27.005Z,900
2017-06-11T09:37:07.544Z,812
2017-06-11T09:37:48.094Z,856
2017-06-11T09:38:28.668Z,808
2017-06-11T09:39:09.221Z,788
2017-06-11T09:39:49.743Z,764
2017-06-11T09:40:30.322Z,716
2017-06-11T09:41:10.871Z,692
2017-06-11T09:41:51.421Z,688
2017-06-11T09:42:32.078Z,696
2017-06-11T09:43:12.623Z,716
2017-06-11T09:43:53.264Z,728
2017-06-11T09:44:33.811Z,752
2017-06-11T09:45:15.403Z,736
2017-06-11T09:45:55.970Z,736
2017-06-11T09:46:36.601Z,744
2017-06-11T09:47:17.155Z,752
2017-06-11T09:47:58.729Z,780
2017-06-11T09:48:39.291Z,784
2017-06-11T09:49:19.926Z,776
2017-06-11T09:50:00.473Z,748
2017-06-11T09:50:41.136Z,720
2017-06-11T09:51:21.683Z,736
2017-06-11T09:52:02.339Z,660
2017-06-11T09:52:42.992Z,664
2017-06-11T09:53:23.645Z,684
2017-06-11T09:54:04.199Z,728
2017-06-11T09:54:44.745Z,772
2017-06-11T09:55:26.313Z,900
2017-06-11T09:56:06.872Z,784
2017-06-11T09:56:47.422Z,824
2017-06-11T09:57:27.973Z,856
2017-06-11T09:58:08.529Z,888
2017-06-11T09:58:49.182Z,932
2017-06-11T09:59:29.724Z,888
2017-06-11T10:00:10.286Z,872
2017-06-11T10:00:50.834Z,1020
2017-06-11T10:01:31.483Z,1144
2017-06-11T10:02:12.033Z,924
2017-06-11T10:02:52.582Z,952
2017-06-11T10:03:33.124Z,800
2017-06-11T10:04:13.679Z,736
2017-06-11T10:04:54.333Z,684
2017-06-11T10:05:35.907Z,664
2017-06-11T10:06:17.328Z,656
2017-06-11T10:06:58.953Z,676
2017-06-11T10:07:39.511Z,676
2017-06-11T10:08:20.054Z,676
2017-06-11T10:09:00.642Z,684
2017-06-11T10:09:41.366Z,696
2017-06-11T10:10:21.911Z,748
2017-06-11T10:11:02.469Z,776
2017-06-11T10:11:44.037Z,800
2017-06-11T10:12:24.592Z,832
2017-06-11T10:13:05.237Z,864
2017-06-11T10:13:45.884Z,872
2017-06-11T10:14:26.457Z,816
2017-06-11T10:15:06.966Z,792
2017-06-11T10:15:48.538Z,756
2017-06-11T10:16:29.099Z,780
2017-06-11T10:17:09.654Z,784
2017-06-11T10:17:51.249Z,792
2017-06-11T10:18:31.876Z,836
2017-06-11T10:19:12.449Z,848
2017-06-11T10:19:52.978Z,888
2017-06-11T10:20:33.531Z,984
2017-06-11T10:21:14.187Z,1068
2017-06-11T10:21:55.858Z,1196
2017-06-11T10:22:38.456Z,1188
2017-06-11T10:23:19.009Z,1052
2017-06-11T10:23:59.559Z,968
2017-06-11T10:24:40.134Z,1052
2017-06-11T10:25:20.761Z,1104
2017-06-11T10:26:01.306Z,1224
2017-06-11T10:26:41.869Z,1120
2017-06-11T10:27:22.408Z,980
2017-06-11T10:28:02.964Z,1084
2017-06-11T10:28:43.515Z,916
2017-06-11T10:29:24.068Z,1060
2017-06-11T10:30:09.532Z,936
2017-06-11T10:30:51.106Z,972
2017-06-11T10:31:31.680Z,756
2017-06-11T10:32:12.207Z,700
2017-06-11T10:32:53.801Z,704
2017-06-11T10:33:34.640Z,688
2017-06-11T10:34:15.191Z,788
2017-06-11T10:34:56.764Z,592
2017-06-11T10:35:37.317Z,712
2017-06-11T10:36:17.883Z,736
2017-06-11T10:36:59.461Z,584
2017-06-11T10:37:40.098Z,684
2017-06-11T10:38:20.607Z,712
2017-06-11T10:39:01.153Z,796
2017-06-11T10:39:42.769Z,824
2017-06-11T10:40:23.290Z,832
2017-06-11T10:41:03.921Z,996
2017-06-11T10:41:49.534Z,976
2017-06-11T10:42:30.062Z,980
2017-06-11T10:43:11.635Z,1072
2017-06-11T10:43:54.212Z,1268
2017-06-11T10:44:39.698Z,1140
2017-06-11T10:45:20.220Z,1048
2017-06-11T10:46:01.824Z,1256
2017-06-11T10:46:42.484Z,1240
2017-06-11T10:47:23.109Z,1160
2017-06-11T10:48:03.650Z,1252
2017-06-11T10:48:45.197Z,1256
2017-06-11T10:49:25.728Z,1220
2017-06-11T10:50:06.325Z,1196
2017-06-11T10:50:46.936Z,952
2017-06-11T10:51:27.483Z,1032
2017-06-11T10:52:08.116Z,1156
2017-06-11T10:52:48.713Z,1032
2017-06-11T10:53:29.243Z,916
2017-06-11T10:54:09.853Z,1004
2017-06-11T10:54:50.461Z,968
2017-06-11T10:55:30.979Z,916
2017-06-11T10:56:11.617Z,920
2017-06-11T10:56:52.338Z,1056
2017-06-11T10:57:32.872Z,1172
2017-06-11T10:58:14.284Z,1176
2017-06-11T10:58:54.888Z,1188
2017-06-11T10:59:35.416Z,1100
2017-06-11T11:00:15.999Z,1044
2017-06-11T11:01:01.192Z,1000
2017-06-11T11:01:41.790Z,1020
2017-06-11T11:02:22.327Z,1008
2017-06-11T11:03:03.005Z,980
2017-06-11T11:03:44.631Z,932
2017-06-11T11:04:25.231Z,924
2017-06-11T11:05:05.788Z,936
2017-06-11T11:05:46.333Z,860
2017-06-11T11:06:26.885Z,792
2017-06-11T11:07:07.435Z,820
2017-06-11T11:07:47.959Z,868
2017-06-11T11:08:28.557Z,884
2017-06-11T11:09:10.214Z,880
2017-06-11T11:09:50.764Z,888
2017-06-11T11:10:31.332Z,860
2017-06-11T11:11:11.884Z,848
2017-06-11T11:11:53.560Z,892
2017-06-11T11:12:34.201Z,920
2017-06-11T11:13:14.727Z,924
2017-06-11T11:13:55.404Z,928
2017-06-11T11:14:36.969Z,928
2017-06-11T11:15:18.565Z,936
2017-06-11T11:15:59.206Z,932
2017-06-11T11:16:40.784Z,908
2017-06-11T11:17:21.338Z,796
2017-06-11T11:18:01.993Z,736
2017-06-11T11:18:42.633Z,480
2017-06-11T11:19:25.244Z,444
2017-06-11T11:20:05.800Z,408
2017-06-11T11:20:47.469Z,436
2017-06-11T11:21:28.120Z,472
2017-06-11T11:22:08.668Z,576
2017-06-11T11:22:49.318Z,792
2017-06-11T11:23:29.992Z,596
2017-06-11T11:24:10.633Z,632
2017-06-11T11:24:51.182Z,652
2017-06-11T11:25:31.744Z,692
2017-06-11T11:26:12.369Z,736
2017-06-11T11:26:53.956Z,672
2017-06-11T11:27:34.602Z,656
2017-06-11T11:28:15.262Z,680
2017-06-11T11:28:55.898Z,728
2017-06-11T11:29:36.493Z,692
2017-06-11T11:30:17.111Z,676
2017-06-11T11:31:02.496Z,724
2017-06-11T11:31:44.055Z,700
2017-06-11T11:32:24.606Z,808
2017-06-11T11:33:05.144Z,760
2017-06-11T11:33:47.772Z,868
2017-06-11T11:34:28.362Z,732
2017-06-11T11:35:08.958Z,672
2017-06-11T11:35:49.479Z,652
2017-06-11T11:36:30.089Z,652
2017-06-11T11:37:10.655Z,668
2017-06-11T11:37:51.264Z,680
2017-06-11T11:38:31.801Z,696
2017-06-11T11:39:12.364Z,680
2017-06-11T11:39:53.997Z,688
2017-06-11T11:40:34.579Z,748
2017-06-11T11:41:15.138Z,772
2017-06-11T11:41:55.721Z,776
2017-06-11T11:42:36.299Z,720
2017-06-11T11:43:16.895Z,736
2017-06-11T11:43:57.578Z,700
2017-06-11T11:44:38.205Z,728
2017-06-11T11:45:18.852Z,708
2017-06-11T11:45:59.399Z,712
2017-06-11T11:46:39.952Z,680
2017-06-11T11:47:20.605Z,672
2017-06-11T11:48:01.262Z,616
2017-06-11T11:48:43.874Z,612
2017-06-11T11:49:25.464Z,600
2017-06-11T11:50:06.087Z,600
2017-06-11T11:50:46.745Z,600
2017-06-11T11:51:27.299Z,588
2017-06-11T11:52:08.880Z,592
2017-06-11T11:52:51.570Z,580
2017-06-11T11:53:32.144Z,580
2017-06-11T11:54:12.678Z,576
2017-06-11T11:54:53.381Z,572
2017-06-11T11:55:33.966Z,620